createdAt,value
2023-02-13T00:00:49.128Z,5.97
2023-02-13T00:03:16.403Z,2.22
2023-02-13T00:05:44.939Z,3.20
2023-02-13T00:08:12.358Z,2.25
2023-02-13T00:10:40.425Z,2.08
2023-02-13T00:13:08.457Z,3.05
2023-02-13T00:15:37.505Z,3.88
2023-02-13T00:18:05.155Z,3.35
2023-02-13T00:20:34.394Z,8.60
2023-02-13T00:23:01.640Z,2.83
2023-02-13T00:25:29.020Z,5.63
2023-02-13T00:27:56.274Z,2.33
2023-02-13T00:30:23.558Z,2.88
2023-02-13T00:32:51.037Z,7.80
2023-02-13T00:35:18.389Z,3.20
2023-02-13T00:37:45.608Z,5.35
2023-02-13T00:40:13.973Z,5.82
2023-02-13T00:42:41.274Z,5.65
2023-02-13T00:45:09.049Z,4.40
2023-02-13T00:47:36.899Z,4.90
2023-02-13T00:50:04.698Z,5.25
2023-02-13T00:52:32.462Z,5.57
2023-02-13T00:54:59.731Z,4.85
2023-02-13T00:57:39.653Z,1.75
2023-02-13T01:00:07.540Z,7.60
2023-02-13T01:02:36.254Z,2.90
2023-02-13T01:05:05.032Z,2.55
2023-02-13T01:07:32.583Z,9.13
2023-02-13T01:10:00.915Z,2.05
2023-02-13T01:12:28.190Z,6.40
2023-02-13T01:14:56.094Z,2.88
2023-02-13T01:17:24.843Z,4.47
2023-02-13T01:19:52.999Z,3.80
2023-02-13T01:22:20.295Z,2.88
2023-02-13T01:24:49.119Z,4.72
2023-02-13T01:27:17.307Z,5.00
2023-02-13T01:29:45.403Z,5.97
2023-02-13T01:32:14.019Z,2.88
2023-02-13T01:34:41.463Z,8.15
2023-02-13T01:37:14.147Z,2.83
2023-02-13T01:39:41.453Z,4.22
2023-02-13T01:42:17.009Z,3.17
2023-02-13T01:44:56.230Z,5.93
2023-02-13T01:47:33.897Z,7.45
2023-02-13T01:50:08.748Z,3.75
2023-02-13T01:52:40.167Z,3.60
2023-02-13T01:55:07.589Z,11.90
2023-02-13T01:57:35.383Z,3.85
2023-02-13T02:00:07.976Z,5.85
2023-02-13T02:02:38.634Z,8.23
2023-02-13T02:05:06.599Z,7.05
2023-02-13T02:07:42.092Z,4.35
2023-02-13T02:10:16.085Z,5.97
2023-02-13T02:13:07.945Z,7.55
2023-02-13T02:15:35.468Z,2.80
2023-02-13T02:18:02.681Z,5.25
2023-02-13T02:21:10.315Z,11.38
2023-02-13T02:24:15.177Z,2.90
2023-02-13T02:26:57.508Z,4.82
2023-02-13T02:29:45.761Z,8.82
2023-02-13T02:32:46.886Z,2.95
2023-02-13T02:35:33.496Z,5.57
2023-02-13T02:38:15.024Z,3.28
2023-02-13T02:40:55.432Z,2.15
2023-02-13T02:43:22.774Z,1.92
2023-02-13T02:45:56.707Z,5.35
2023-02-13T02:48:59.353Z,3.63
2023-02-13T02:51:38.959Z,5.85
2023-02-13T02:54:42.918Z,2.70
2023-02-13T02:57:17.101Z,9.45
2023-02-13T03:00:02.834Z,3.90
2023-02-13T03:02:48.939Z,3.22
2023-02-13T03:05:42.440Z,2.15
2023-02-13T03:08:09.665Z,2.85
2023-02-13T03:10:56.669Z,1.90
2023-02-13T03:13:42.073Z,4.13
2023-02-13T03:16:54.114Z,4.47
2023-02-13T03:20:14.205Z,1.50
2023-02-13T03:22:51.087Z,4.22
2023-02-13T03:25:40.438Z,2.35
2023-02-13T03:28:35.940Z,1.95
2023-02-13T03:31:44.516Z,2.03
2023-02-13T03:34:17.224Z,3.42
2023-02-13T03:37:07.172Z,5.05
2023-02-13T03:39:43.906Z,1.85
2023-02-13T03:42:11.060Z,2.00
2023-02-13T03:45:15.182Z,1.67
2023-02-13T03:47:42.834Z,2.17
2023-02-13T03:50:10.251Z,3.63
2023-02-13T03:52:55.773Z,4.28
2023-02-13T03:55:43.817Z,4.70
2023-02-13T03:58:35.611Z,7.78
2023-02-13T04:01:05.047Z,3.33
2023-02-13T04:03:35.539Z,2.90
2023-02-13T04:06:06.491Z,7.72
2023-02-13T04:08:33.772Z,3.15
2023-02-13T04:11:30.650Z,2.85
2023-02-13T04:14:07.770Z,9.77
2023-02-13T04:16:36.357Z,9.55
2023-02-13T04:19:03.745Z,3.20
2023-02-13T04:21:34.552Z,2.72
2023-02-13T04:26:36.649Z,3.90
2023-02-13T04:29:04.113Z,5.60
2023-02-13T04:31:31.867Z,4.03
2023-02-13T04:33:59.220Z,1.83
2023-02-13T04:36:26.643Z,1.75
2023-02-13T04:38:53.891Z,1.60
2023-02-13T04:41:21.146Z,1.98
2023-02-13T04:43:52.029Z,2.88
2023-02-13T04:46:19.417Z,5.53
2023-02-13T04:48:46.671Z,6.30
2023-02-13T04:51:14.376Z,2.83
2023-02-13T04:53:42.045Z,4.57
2023-02-13T04:56:09.689Z,3.33
2023-02-13T04:58:37.322Z,1.95
2023-02-13T05:01:12.475Z,2.78
2023-02-13T05:03:39.920Z,5.07
2023-02-13T05:06:07.247Z,8.60
2023-02-13T05:08:36.064Z,4.05
2023-02-13T05:11:03.368Z,7.10
2023-02-13T05:13:31.107Z,5.47
2023-02-13T05:15:58.435Z,4.78
2023-02-13T05:18:25.822Z,4.65
2023-02-13T05:21:11.643Z,4.60
2023-02-13T05:23:38.861Z,6.40
2023-02-13T05:26:06.089Z,5.75
2023-02-13T05:28:52.229Z,6.68
2023-02-13T05:31:19.653Z,10.60
2023-02-13T05:33:47.218Z,6.05
2023-02-13T05:36:14.469Z,4.57
2023-02-13T05:38:41.782Z,6.90
2023-02-13T05:41:09.190Z,9.18
2023-02-13T05:43:36.629Z,8.93
2023-02-13T05:46:08.385Z,4.78
2023-02-13T05:48:36.742Z,5.60
2023-02-13T05:51:04.242Z,6.40
2023-02-13T05:53:35.174Z,3.10
2023-02-13T05:56:03.400Z,4.22
2023-02-13T05:58:30.844Z,4.05
2023-02-13T06:00:59.020Z,3.47
2023-02-13T06:03:27.317Z,6.60
2023-02-13T06:05:55.683Z,4.32
2023-02-13T06:08:23.224Z,6.38
2023-02-13T06:10:55.791Z,2.40
2023-02-13T06:13:23.214Z,2.00
2023-02-13T06:15:50.966Z,3.40
2023-02-13T06:18:18.444Z,8.50
2023-02-13T06:20:45.892Z,5.10
2023-02-13T06:23:13.185Z,7.53
2023-02-13T06:25:40.472Z,8.00
2023-02-13T06:28:07.764Z,4.00
2023-02-13T06:30:35.384Z,4.75
2023-02-13T06:33:02.691Z,5.28
2023-02-13T06:35:30.596Z,6.55
2023-02-13T06:37:57.890Z,9.30
2023-02-13T06:40:25.114Z,6.47
2023-02-13T06:42:52.505Z,5.57
2023-02-13T06:45:20.017Z,4.75
2023-02-13T06:47:47.992Z,2.80
2023-02-13T06:50:16.201Z,4.00
2023-02-13T06:52:48.129Z,4.47
2023-02-13T06:55:16.579Z,5.75
2023-02-13T06:57:44.610Z,5.85
2023-02-13T07:00:13.970Z,4.85
2023-02-13T07:02:41.951Z,3.60
2023-02-13T07:05:09.437Z,6.03
2023-02-13T07:07:37.171Z,4.22
2023-02-13T07:10:11.935Z,4.53
2023-02-13T07:12:39.739Z,5.75
2023-02-13T07:15:08.162Z,4.57
2023-02-13T07:17:36.064Z,6.68
2023-02-13T07:20:04.665Z,6.38
2023-02-13T07:22:34.091Z,10.40
2023-02-13T07:25:01.489Z,5.97
2023-02-13T07:27:29.430Z,6.45
2023-02-13T07:29:57.449Z,5.13
2023-02-13T07:32:25.200Z,6.70
2023-02-13T07:35:01.787Z,7.30
2023-02-13T07:37:30.881Z,6.88
2023-02-13T07:39:58.782Z,4.65
2023-02-13T07:42:26.041Z,5.57
2023-02-13T07:44:53.326Z,6.45
2023-02-13T07:47:20.619Z,11.00
2023-02-13T07:49:48.261Z,7.38
2023-02-13T07:52:15.804Z,8.25
2023-02-13T07:54:48.075Z,7.15
2023-02-13T07:57:16.186Z,11.90
2023-02-13T07:59:43.582Z,5.13
2023-02-13T08:02:13.318Z,4.10
2023-02-13T08:04:41.114Z,10.45
2023-02-13T08:07:08.421Z,3.75
2023-02-13T08:09:54.136Z,5.78
2023-02-13T08:12:21.653Z,7.63
2023-02-13T08:14:48.882Z,8.52
2023-02-13T08:17:16.475Z,2.95
2023-02-13T08:19:43.851Z,6.15
2023-02-13T08:22:13.552Z,6.88
2023-02-13T08:24:41.051Z,4.13
2023-02-13T08:27:12.609Z,5.40
2023-02-13T08:29:39.826Z,5.72
2023-02-13T08:32:07.381Z,4.40
2023-02-13T08:34:35.650Z,5.13
2023-02-13T08:37:03.118Z,6.80
2023-02-13T08:39:30.394Z,4.78
2023-02-13T08:41:57.717Z,3.67
2023-02-13T08:44:25.268Z,4.25
2023-02-13T08:46:55.914Z,5.30
2023-02-13T08:49:23.612Z,9.77
2023-02-13T08:51:50.909Z,10.77
2023-02-13T08:54:18.273Z,9.57
2023-02-13T08:56:45.680Z,11.45
2023-02-13T08:59:12.913Z,16.83
2023-02-13T09:01:40.234Z,15.23
2023-02-13T09:04:07.785Z,21.85
2023-02-13T09:06:35.178Z,18.23
2023-02-13T09:09:03.746Z,31.20
2023-02-13T09:11:31.176Z,18.08
2023-02-13T09:14:01.404Z,20.48
2023-02-13T09:16:29.321Z,14.57
2023-02-13T09:18:56.669Z,14.68
2023-02-13T09:21:23.987Z,10.85
2023-02-13T09:23:52.287Z,7.22
2023-02-13T09:26:20.794Z,8.20
2023-02-13T09:28:48.658Z,11.05
2023-02-13T09:31:19.996Z,6.50
2023-02-13T09:36:21.743Z,9.13
2023-02-13T09:38:52.270Z,5.97
2023-02-13T09:41:27.926Z,4.72
2023-02-13T09:44:03.500Z,8.55
2023-02-13T09:46:40.586Z,6.28
2023-02-13T09:49:08.573Z,7.22
2023-02-13T09:51:35.862Z,6.22
2023-02-13T09:54:05.139Z,9.60
2023-02-13T09:56:54.840Z,8.57
2023-02-13T09:59:43.996Z,8.55
2023-02-13T10:02:20.186Z,9.27
2023-02-13T10:05:06.183Z,9.05
2023-02-13T10:07:40.842Z,10.77
2023-02-13T10:10:58.826Z,8.55
2023-02-13T10:14:04.747Z,10.55
2023-02-13T10:16:41.037Z,7.40
2023-02-13T10:19:28.346Z,10.60
2023-02-13T10:22:00.740Z,5.45
2023-02-13T10:24:30.371Z,5.82
2023-02-13T10:26:57.565Z,7.25
2023-02-13T10:29:44.946Z,7.32
2023-02-13T10:32:14.837Z,10.40
2023-02-13T10:34:44.623Z,10.32
2023-02-13T10:37:16.747Z,5.45
2023-02-13T10:39:46.574Z,3.53
2023-02-13T10:42:38.539Z,4.40
2023-02-13T10:45:42.679Z,5.82
2023-02-13T10:48:40.788Z,7.97
2023-02-13T10:51:33.640Z,5.07
2023-02-13T10:54:16.113Z,4.97
2023-02-13T10:56:46.525Z,7.00
2023-02-13T10:59:13.719Z,8.57
2023-02-13T11:01:56.700Z,8.50
2023-02-13T11:04:24.186Z,6.45
2023-02-13T11:07:13.005Z,7.53
2023-02-13T11:09:41.974Z,3.92
2023-02-13T11:12:28.386Z,6.43
2023-02-13T11:14:57.524Z,4.30
2023-02-13T11:17:25.378Z,6.47
2023-02-13T11:19:54.399Z,10.38
2023-02-13T11:22:39.726Z,6.28
2023-02-13T11:25:16.849Z,5.32
2023-02-13T11:27:44.382Z,6.50
2023-02-13T11:30:35.024Z,9.45
2023-02-13T11:33:07.164Z,10.80
2023-02-13T11:35:36.533Z,4.53
2023-02-13T11:38:18.234Z,6.28
2023-02-13T11:40:53.031Z,6.40
2023-02-13T11:43:34.634Z,5.22
2023-02-13T11:46:03.284Z,6.75
2023-02-13T11:48:30.827Z,9.00
2023-02-13T11:50:58.269Z,7.25
2023-02-13T11:53:29.761Z,7.85
2023-02-13T11:56:06.475Z,10.35
2023-02-13T11:58:33.992Z,4.85
2023-02-13T12:01:28.644Z,5.97
2023-02-13T12:04:03.737Z,4.22
2023-02-13T12:06:31.416Z,5.00
2023-02-13T12:08:58.999Z,5.85
2023-02-13T12:11:36.995Z,6.35
2023-02-13T12:14:04.358Z,5.32
2023-02-13T12:16:42.486Z,5.32
2023-02-13T12:19:18.417Z,4.40
2023-02-13T12:22:16.952Z,3.15
2023-02-13T12:25:04.798Z,4.93
2023-02-13T12:27:43.035Z,4.85
2023-02-13T12:30:19.174Z,3.65
2023-02-13T12:32:58.354Z,6.47
2023-02-13T12:35:37.986Z,3.17
2023-02-13T12:38:17.088Z,2.83
2023-02-13T12:40:53.997Z,3.88
2023-02-13T12:43:37.753Z,3.42
2023-02-13T12:46:10.363Z,3.45
2023-02-13T12:48:44.737Z,4.43
2023-02-13T12:51:22.892Z,3.65
2023-02-13T12:54:05.515Z,3.28
2023-02-13T12:56:55.017Z,5.97
2023-02-13T12:59:49.593Z,16.40
2023-02-13T13:02:43.089Z,14.02
2023-02-13T13:05:41.028Z,2.65
2023-02-13T13:08:25.961Z,4.30
2023-02-13T13:11:24.636Z,5.50
2023-02-13T13:14:04.376Z,4.43
2023-02-13T13:16:38.306Z,5.88
2023-02-13T13:19:23.796Z,4.75
2023-02-13T13:21:52.706Z,5.13
2023-02-13T13:24:22.770Z,2.85
2023-02-13T13:26:50.649Z,4.45
2023-02-13T13:29:21.470Z,3.13
2023-02-13T13:31:55.800Z,1.90
2023-02-13T13:34:25.106Z,3.90
2023-02-13T13:39:52.940Z,2.88
2023-02-13T13:42:25.998Z,6.25
2023-02-13T13:45:12.958Z,6.05
2023-02-13T13:48:18.571Z,6.22
2023-02-13T13:50:45.820Z,2.45
2023-02-13T13:53:20.427Z,3.05
2023-02-13T13:55:47.741Z,3.05
2023-02-13T13:58:33.994Z,9.20
2023-02-13T14:01:26.194Z,4.15
2023-02-13T14:03:56.271Z,4.75
2023-02-13T14:06:25.065Z,4.53
2023-02-13T14:09:00.468Z,6.25
2023-02-13T14:11:38.619Z,3.25
2023-02-13T14:14:45.748Z,13.00
2023-02-13T14:17:14.364Z,4.22
2023-02-13T14:19:41.720Z,4.55
2023-02-13T14:22:30.632Z,6.78
2023-02-13T14:24:59.369Z,9.63
2023-02-13T14:27:40.057Z,6.50
2023-02-13T14:30:28.545Z,5.47
2023-02-13T14:32:55.945Z,8.32
2023-02-13T14:35:37.393Z,3.67
2023-02-13T14:38:08.455Z,21.70
2023-02-13T14:40:52.277Z,8.43
2023-02-13T14:43:22.044Z,3.92
2023-02-13T14:45:55.196Z,6.30
2023-02-13T14:48:33.097Z,10.10
2023-02-13T14:51:01.308Z,8.73
2023-02-13T14:53:31.006Z,8.05
2023-02-13T14:56:05.699Z,6.30
2023-02-13T14:58:35.466Z,5.47
2023-02-13T15:01:11.617Z,5.97
2023-02-13T15:03:49.642Z,12.15
2023-02-13T15:06:30.151Z,6.13
2023-02-13T15:08:58.089Z,7.50
2023-02-13T15:11:43.026Z,7.85
2023-02-13T15:14:34.536Z,7.28
2023-02-13T15:17:17.303Z,6.75
2023-02-13T15:19:50.631Z,5.82
2023-02-13T15:22:20.594Z,5.65
2023-02-13T15:24:48.751Z,4.20
2023-02-13T15:27:27.016Z,6.70
2023-02-13T15:29:58.463Z,4.15
2023-02-13T15:32:37.035Z,5.80
2023-02-13T15:35:25.167Z,5.90
2023-02-13T15:37:53.062Z,4.15
2023-02-13T15:40:24.357Z,6.57
2023-02-13T15:42:51.965Z,5.95
2023-02-13T15:45:19.629Z,5.50
2023-02-13T15:47:47.030Z,5.55
2023-02-13T15:50:20.158Z,3.42
2023-02-13T15:52:47.439Z,6.55
2023-02-13T15:55:24.256Z,2.97
2023-02-13T15:57:51.982Z,6.50
2023-02-13T16:00:30.310Z,6.97
2023-02-13T16:02:58.848Z,6.10
2023-02-13T16:05:39.326Z,5.32
2023-02-13T16:08:31.938Z,5.55
2023-02-13T16:11:19.903Z,4.53
2023-02-13T16:13:56.309Z,5.88
2023-02-13T16:16:24.111Z,4.93
2023-02-13T16:18:51.851Z,5.45
2023-02-13T16:21:24.533Z,4.57
2023-02-13T16:24:00.311Z,4.07
2023-02-13T16:26:27.489Z,5.53
2023-02-13T16:28:55.878Z,4.32
2023-02-13T16:31:23.644Z,4.28
2023-02-13T16:33:50.938Z,4.20
2023-02-13T16:36:26.685Z,5.65
2023-02-13T16:38:53.957Z,6.78
2023-02-13T16:41:23.525Z,4.15
2023-02-13T16:43:54.599Z,6.43
2023-02-13T16:46:28.082Z,7.10
2023-02-13T16:48:58.976Z,6.90
2023-02-13T16:51:46.694Z,4.93
2023-02-13T16:54:46.375Z,4.85
2023-02-13T16:57:13.569Z,7.18
2023-02-13T16:59:49.357Z,4.57
2023-02-13T17:02:27.705Z,5.68
2023-02-13T17:04:56.101Z,7.10
2023-02-13T17:07:25.553Z,8.95
2023-02-13T17:09:54.338Z,5.97
2023-02-13T17:12:23.277Z,9.27
2023-02-13T17:14:50.814Z,5.38
2023-02-13T17:17:20.117Z,8.23
2023-02-13T17:19:47.703Z,7.78
2023-02-13T17:22:36.037Z,5.53
2023-02-13T17:25:05.852Z,5.28
2023-02-13T17:27:33.466Z,5.00
2023-02-13T17:30:00.836Z,6.65
2023-02-13T17:32:29.049Z,7.85
2023-02-13T17:34:59.471Z,9.13
2023-02-13T17:37:27.363Z,5.85
2023-02-13T17:39:54.962Z,7.22
2023-02-13T17:42:28.733Z,5.65
2023-02-13T17:44:57.020Z,7.03
2023-02-13T17:47:25.151Z,15.95
2023-02-13T17:49:59.230Z,6.25
2023-02-13T17:52:33.194Z,7.07
2023-02-13T17:55:00.445Z,6.70
2023-02-13T17:57:27.887Z,7.32
2023-02-13T17:59:56.919Z,9.88
2023-02-13T18:02:24.833Z,9.85
2023-02-13T18:04:52.265Z,8.27
2023-02-13T18:07:20.767Z,7.07
2023-02-13T18:09:48.076Z,10.30
2023-02-13T18:12:22.045Z,6.72
2023-02-13T18:14:49.677Z,5.97
2023-02-13T18:17:17.156Z,11.85
2023-02-13T18:19:44.508Z,6.68
2023-02-13T18:22:11.932Z,11.63
2023-02-13T18:24:40.858Z,12.63
2023-02-13T18:27:08.397Z,12.55
2023-02-13T18:29:37.406Z,10.25
2023-02-13T18:32:06.003Z,12.20
2023-02-13T18:34:34.993Z,9.73
2023-02-13T18:37:02.659Z,12.40
2023-02-13T18:39:30.885Z,13.75
2023-02-13T18:41:58.248Z,14.65
2023-02-13T18:44:28.754Z,18.15
2023-02-13T18:46:56.910Z,15.52
2023-02-13T18:49:24.216Z,14.00
2023-02-13T18:51:52.100Z,18.35
2023-02-13T18:54:19.356Z,14.25
2023-02-13T18:56:47.448Z,15.52
2023-02-13T18:59:14.764Z,15.32
2023-02-13T19:01:42.215Z,17.45
2023-02-13T19:04:14.568Z,14.27
2023-02-13T19:06:42.332Z,18.40
2023-02-13T19:09:10.203Z,22.83
2023-02-13T19:11:39.495Z,17.08
2023-02-13T19:14:06.963Z,27.20
2023-02-13T19:16:35.378Z,17.17
2023-02-13T19:19:05.333Z,16.00
2023-02-13T19:21:34.164Z,15.10
2023-02-13T19:24:02.976Z,19.92
2023-02-13T19:26:30.507Z,20.15
2023-02-13T19:28:58.441Z,23.00
2023-02-13T19:31:27.569Z,21.85
2023-02-13T19:33:55.325Z,16.30
2023-02-13T19:36:23.981Z,20.60
2023-02-13T19:38:55.738Z,17.52
2023-02-13T19:41:23.489Z,16.08
2023-02-13T19:43:53.392Z,14.90
2023-02-13T19:46:25.926Z,15.30
2023-02-13T19:48:53.846Z,14.45
2023-02-13T19:51:26.208Z,26.60
2023-02-13T19:54:01.051Z,17.80
2023-02-13T19:56:28.929Z,16.05
2023-02-13T19:58:56.321Z,16.35
2023-02-13T20:01:25.240Z,16.25
2023-02-13T20:03:52.848Z,15.85
2023-02-13T20:06:21.888Z,16.40
2023-02-13T20:08:49.382Z,14.95
2023-02-13T20:11:17.374Z,15.32
2023-02-13T20:13:45.609Z,17.60
2023-02-13T20:16:15.118Z,16.70
2023-02-13T20:18:42.676Z,13.60
2023-02-13T20:21:13.764Z,15.80
2023-02-13T20:23:41.506Z,14.43
2023-02-13T20:26:13.905Z,15.05
2023-02-13T20:28:42.103Z,13.63
2023-02-13T20:31:13.458Z,14.38
2023-02-13T20:33:41.742Z,12.05
2023-02-13T20:36:14.302Z,16.10
2023-02-13T20:38:42.244Z,14.75
2023-02-13T20:41:10.793Z,21.48
2023-02-13T20:43:41.323Z,14.85
2023-02-13T20:46:09.041Z,16.25
2023-02-13T20:48:37.461Z,23.98
2023-02-13T20:51:06.529Z,16.35
2023-02-13T20:53:34.164Z,16.13
2023-02-13T20:56:16.131Z,19.67
2023-02-13T21:01:19.122Z,23.25
2023-02-13T21:03:48.000Z,23.05
2023-02-13T21:06:23.796Z,15.95
2023-02-13T21:11:18.355Z,17.92
2023-02-13T21:13:46.253Z,20.15
2023-02-13T21:16:34.262Z,20.02
2023-02-13T21:19:05.308Z,14.82
2023-02-13T21:21:33.781Z,20.17
2023-02-13T21:24:03.258Z,14.75
2023-02-13T21:26:31.819Z,16.08
2023-02-13T21:28:59.274Z,19.48
2023-02-13T21:31:31.881Z,14.07
2023-02-13T21:34:06.942Z,16.50
2023-02-13T21:36:38.508Z,17.67
2023-02-13T21:39:06.881Z,16.13
2023-02-13T21:41:35.049Z,15.30
2023-02-13T21:44:02.538Z,18.50
2023-02-13T21:46:31.235Z,12.95
2023-02-13T21:49:05.628Z,15.82
2023-02-13T21:51:34.150Z,14.95
2023-02-13T21:54:01.518Z,14.95
2023-02-13T21:56:31.336Z,12.02
2023-02-13T21:58:59.129Z,19.23
2023-02-13T22:01:27.557Z,11.43
2023-02-13T22:04:03.034Z,16.20
2023-02-13T22:06:31.307Z,15.13
2023-02-13T22:09:05.247Z,10.30
2023-02-13T22:11:33.161Z,18.40
2023-02-13T22:14:04.158Z,10.35
2023-02-13T22:16:33.886Z,14.13
2023-02-13T22:19:02.714Z,11.98
2023-02-13T22:21:30.828Z,13.90
2023-02-13T22:23:58.218Z,13.48
2023-02-13T22:26:27.715Z,13.65
2023-02-13T22:28:58.119Z,14.68
2023-02-13T22:31:26.159Z,12.63
2023-02-13T22:34:09.622Z,13.10
2023-02-13T22:36:39.040Z,14.05
2023-02-13T22:39:09.960Z,14.40
2023-02-13T22:44:05.374Z,15.57
2023-02-13T22:46:33.041Z,18.33
2023-02-13T22:49:00.286Z,12.77
2023-02-13T22:51:32.607Z,14.98
2023-02-13T22:54:00.218Z,13.13
2023-02-13T22:56:28.017Z,14.57
2023-02-13T22:58:55.602Z,18.60
2023-02-13T23:01:23.748Z,23.80
2023-02-13T23:03:51.133Z,15.77
2023-02-13T23:06:22.613Z,18.50
2023-02-13T23:08:52.692Z,14.43
2023-02-13T23:11:39.753Z,13.90
2023-02-13T23:14:07.669Z,15.52
2023-02-13T23:16:54.035Z,17.70
2023-02-13T23:19:22.033Z,12.25
2023-02-13T23:21:49.983Z,15.57
2023-02-13T23:24:17.485Z,14.90
2023-02-13T23:26:45.095Z,14.25
2023-02-13T23:29:12.722Z,12.98
2023-02-13T23:31:40.350Z,12.45
2023-02-13T23:34:07.776Z,11.95
2023-02-13T23:36:35.299Z,11.35
2023-02-13T23:39:02.492Z,11.30
2023-02-13T23:41:29.790Z,12.85
2023-02-13T23:43:57.673Z,9.93
2023-02-13T23:46:25.369Z,14.27
2023-02-13T23:48:52.659Z,12.15
2023-02-13T23:51:23.044Z,17.80
2023-02-13T23:53:53.155Z,11.27
2023-02-13T23:56:21.232Z,13.25
2023-02-13T23:58:48.499Z,10.32
